createdAt,value
2022-08-05T00:00:16.783Z,52.30
2022-08-05T00:02:50.845Z,51.95
2022-08-05T00:06:01.858Z,52.00
2022-08-05T00:08:34.327Z,52.33
2022-08-05T00:11:00.611Z,52.33
2022-08-05T00:13:38.998Z,52.52
2022-08-05T00:16:09.556Z,52.26
2022-08-05T00:18:42.179Z,52.64
2022-08-05T00:21:11.694Z,52.60
2022-08-05T00:23:46.950Z,52.72
2022-08-05T00:26:22.314Z,52.87
2022-08-05T00:28:51.607Z,52.93
2022-08-05T00:31:41.339Z,52.69
2022-08-05T00:34:53.755Z,53.06
2022-08-05T00:37:11.668Z,53.05
2022-08-05T00:39:57.218Z,52.76
2022-08-05T00:42:33.879Z,53.32
2022-08-05T00:45:01.679Z,53.47
2022-08-05T00:47:53.434Z,53.71
2022-08-05T00:50:17.536Z,54.01
2022-08-05T00:52:46.834Z,54.21
2022-08-05T00:55:14.956Z,53.91
2022-08-05T00:57:57.879Z,53.81
2022-08-05T01:00:27.694Z,54.29
2022-08-05T01:02:56.025Z,54.27
2022-08-05T01:05:23.954Z,54.61
2022-08-05T01:08:40.390Z,54.40
2022-08-05T01:10:52.447Z,54.50
2022-08-05T01:13:27.590Z,54.87
2022-08-05T01:16:26.517Z,54.76
2022-08-05T01:19:01.801Z,55.17
2022-08-05T01:21:52.264Z,55.07
2022-08-05T01:24:42.703Z,55.35
2022-08-05T01:27:26.541Z,55.70
2022-08-05T01:29:59.285Z,55.96
2022-08-05T01:32:29.207Z,55.77
2022-08-05T01:35:00.519Z,55.92
2022-08-05T01:37:38.250Z,55.86
2022-08-05T01:40:13.950Z,55.97
2022-08-05T01:42:47.562Z,56.14
2022-08-05T01:45:17.782Z,55.59
2022-08-05T01:47:50.389Z,55.89
2022-08-05T01:50:28.574Z,55.81
2022-08-05T01:53:01.195Z,56.34
2022-08-05T01:55:32.130Z,56.05
2022-08-05T01:58:10.982Z,55.83
2022-08-05T02:00:48.267Z,55.66
2022-08-05T02:03:24.193Z,55.68
2022-08-05T02:05:57.846Z,56.18
2022-08-05T02:08:31.273Z,55.92
2022-08-05T02:11:07.727Z,55.97
2022-08-05T02:13:53.242Z,56.06
2022-08-05T02:16:27.576Z,55.87
2022-08-05T02:18:59.772Z,56.05
2022-08-05T02:21:43.005Z,55.90
2022-08-05T02:24:19.698Z,55.81
2022-08-05T02:26:55.377Z,55.83
2022-08-05T02:30:00.027Z,56.08
2022-08-05T02:34:59.018Z,55.73
2022-08-05T02:37:32.291Z,55.71
2022-08-05T02:40:00.643Z,56.00
2022-08-05T02:42:34.305Z,56.13
2022-08-05T02:45:04.933Z,55.95
2022-08-05T02:47:58.375Z,55.96
2022-08-05T02:50:25.698Z,55.89
2022-08-05T02:52:54.420Z,56.34
2022-08-05T02:55:52.051Z,56.14
2022-08-05T02:58:15.630Z,56.29
2022-08-05T03:00:46.063Z,56.60
2022-08-05T03:03:17.646Z,56.35
2022-08-05T03:06:56.335Z,56.41
2022-08-05T03:08:34.697Z,56.47
2022-08-05T03:11:56.900Z,56.34
2022-08-05T03:14:03.129Z,56.26
2022-08-05T03:16:32.123Z,56.50
2022-08-05T03:19:06.501Z,56.39
2022-08-05T03:21:49.544Z,56.30
2022-08-05T03:24:29.429Z,56.87
2022-08-05T03:26:59.024Z,57.00
2022-08-05T03:29:44.501Z,56.90
2022-08-05T03:32:15.371Z,57.32
2022-08-05T03:34:50.763Z,57.42
2022-08-05T03:37:20.073Z,57.27
2022-08-05T03:39:58.638Z,57.57
2022-08-05T03:42:28.870Z,57.59
2022-08-05T03:44:57.058Z,57.26
2022-08-05T03:47:25.101Z,57.41
2022-08-05T03:49:59.799Z,57.70
2022-08-05T03:52:49.231Z,57.40
2022-08-05T03:56:05.718Z,57.70
2022-08-05T03:58:18.833Z,57.43
2022-08-05T04:00:51.584Z,57.64
2022-08-05T04:03:28.217Z,57.49
2022-08-05T04:05:59.834Z,57.15
2022-08-05T04:08:35.997Z,57.14
2022-08-05T04:11:07.382Z,57.48
2022-08-05T04:13:51.256Z,57.65
2022-08-05T04:16:25.346Z,57.56
2022-08-05T04:19:00.490Z,57.55
2022-08-05T04:22:09.508Z,57.46
2022-08-05T04:24:19.456Z,57.38
2022-08-05T04:26:50.833Z,57.29
2022-08-05T04:29:18.880Z,57.53
2022-08-05T04:31:48.534Z,57.58
2022-08-05T04:34:32.625Z,57.34
2022-08-05T04:37:04.019Z,57.71
2022-08-05T04:39:33.525Z,57.23
2022-08-05T04:42:03.779Z,57.34
2022-08-05T04:44:31.535Z,57.50
2022-08-05T04:46:59.470Z,57.48
2022-08-05T04:49:39.118Z,57.47
2022-08-05T04:52:16.967Z,57.75
2022-08-05T04:54:46.382Z,57.81
2022-08-05T04:57:14.120Z,57.68
2022-08-05T04:59:41.863Z,57.61
2022-08-05T05:02:37.567Z,57.73
2022-08-05T05:05:03.044Z,57.90
2022-08-05T05:07:35.385Z,57.97
2022-08-05T05:10:05.348Z,58.08
2022-08-05T05:12:34.228Z,57.97
2022-08-05T05:15:05.964Z,57.80
2022-08-05T05:17:56.605Z,57.87
2022-08-05T05:20:28.662Z,57.89
2022-08-05T05:22:58.186Z,58.01
2022-08-05T05:25:32.594Z,58.13
2022-08-05T05:28:00.897Z,58.31
2022-08-05T05:30:29.770Z,57.96
2022-08-05T05:33:15.934Z,58.01
2022-08-05T05:35:46.768Z,58.27
2022-08-05T05:38:22.507Z,58.40
2022-08-05T05:40:55.836Z,58.22
2022-08-05T05:43:56.449Z,57.87
2022-08-05T05:46:17.492Z,58.10
2022-08-05T05:48:48.553Z,58.30
2022-08-05T05:51:21.649Z,58.39
2022-08-05T05:53:58.024Z,58.17
2022-08-05T05:56:31.582Z,58.12
2022-08-05T05:59:03.072Z,57.95
2022-08-05T06:01:36.998Z,57.98
2022-08-05T06:04:07.098Z,58.21
2022-08-05T06:06:35.422Z,57.93
2022-08-05T06:09:05.745Z,57.93
2022-08-05T06:11:35.551Z,58.00
2022-08-05T06:14:07.376Z,58.13
2022-08-05T06:16:37.365Z,58.14
2022-08-05T06:19:07.362Z,58.13
2022-08-05T06:21:38.759Z,58.62
2022-08-05T06:24:12.835Z,58.38
2022-08-05T06:26:51.613Z,58.66
2022-08-05T06:29:25.285Z,58.58
2022-08-05T06:32:25.254Z,58.51
2022-08-05T06:34:56.878Z,58.45
2022-08-05T06:37:55.873Z,58.44
2022-08-05T06:40:18.144Z,58.40
2022-08-05T06:42:51.879Z,58.60
2022-08-05T06:45:20.761Z,58.62
2022-08-05T06:48:37.107Z,58.63
2022-08-05T06:50:37.365Z,58.84
2022-08-05T06:53:19.593Z,58.71
2022-08-05T06:55:54.278Z,58.97
2022-08-05T06:58:34.866Z,58.67
2022-08-05T07:01:06.976Z,58.81
2022-08-05T07:03:35.506Z,59.09
2022-08-05T07:06:05.486Z,59.18
2022-08-05T07:08:38.168Z,58.99
2022-08-05T07:11:15.211Z,59.03
2022-08-05T07:14:01.087Z,59.19
2022-08-05T07:17:57.054Z,59.43
2022-08-05T07:22:29.048Z,59.08
2022-08-05T07:24:59.176Z,59.57
2022-08-05T07:27:57.064Z,59.43
2022-08-05T07:30:25.347Z,59.59
2022-08-05T07:32:58.235Z,59.44
2022-08-05T07:36:04.655Z,59.40
2022-08-05T07:38:33.334Z,59.42
2022-08-05T07:41:16.497Z,59.61
2022-08-05T07:43:51.369Z,59.56
2022-08-05T07:46:25.496Z,59.60
2022-08-05T07:49:01.878Z,59.51
2022-08-05T07:51:36.797Z,59.47
2022-08-05T07:54:09.621Z,59.24
2022-08-05T07:57:00.645Z,59.29
2022-08-05T07:59:39.058Z,59.24
2022-08-05T08:02:15.929Z,59.44
2022-08-05T08:04:45.751Z,59.20
2022-08-05T08:07:13.876Z,59.07
2022-08-05T08:09:42.580Z,59.06
2022-08-05T08:12:27.542Z,58.79
2022-08-05T08:15:02.708Z,58.79
2022-08-05T08:17:31.601Z,58.72
2022-08-05T08:20:21.107Z,58.53
2022-08-05T08:22:52.309Z,58.43
2022-08-05T08:25:26.748Z,58.20
2022-08-05T08:28:18.082Z,58.11
2022-08-05T08:30:49.909Z,57.96
2022-08-05T08:33:19.311Z,57.84
2022-08-05T08:35:53.845Z,57.78
2022-08-05T08:38:37.730Z,57.37
2022-08-05T08:41:09.168Z,57.26
2022-08-05T08:45:17.760Z,57.06
2022-08-05T08:46:29.106Z,57.03
2022-08-05T08:49:06.173Z,56.70
2022-08-05T08:52:04.247Z,56.62
2022-08-05T08:54:37.349Z,56.01
2022-08-05T08:57:11.354Z,56.42
2022-08-05T08:59:41.916Z,56.20
2022-08-05T09:02:18.986Z,56.29
2022-08-05T09:05:16.093Z,56.30
2022-08-05T09:07:39.469Z,56.13
2022-08-05T09:10:27.971Z,56.12
2022-08-05T09:13:04.548Z,56.12
2022-08-05T09:15:36.763Z,55.67
2022-08-05T09:18:08.817Z,55.71
2022-08-05T09:20:38.050Z,55.81
2022-08-05T09:23:18.544Z,55.51
2022-08-05T09:26:03.111Z,55.41
2022-08-05T09:28:33.816Z,55.33
2022-08-05T09:31:23.511Z,55.41
2022-08-05T09:33:58.509Z,55.35
2022-08-05T09:36:54.204Z,55.23
2022-08-05T09:39:41.215Z,55.29
2022-08-05T09:42:23.271Z,55.28
2022-08-05T09:44:56.089Z,55.25
2022-08-05T09:47:34.948Z,55.08
2022-08-05T09:50:08.257Z,55.33
2022-08-05T09:52:45.162Z,55.10
2022-08-05T09:55:58.716Z,54.78
2022-08-05T09:58:01.435Z,54.76
2022-08-05T10:00:30.483Z,54.64
2022-08-05T10:02:59.146Z,54.31
2022-08-05T10:05:32.968Z,54.43
2022-08-05T10:08:34.602Z,54.47
2022-08-05T10:10:54.327Z,54.55
2022-08-05T10:13:39.398Z,54.52
2022-08-05T10:16:32.056Z,54.50
2022-08-05T10:19:01.145Z,54.44
2022-08-05T10:21:40.421Z,54.25
2022-08-05T10:24:13.126Z,54.56
2022-08-05T10:26:52.202Z,54.26
2022-08-05T10:29:23.414Z,54.48
2022-08-05T10:32:54.071Z,54.18
2022-08-05T10:34:41.155Z,53.48
2022-08-05T10:37:13.058Z,52.96
2022-08-05T10:39:59.081Z,52.08
2022-08-05T10:42:38.378Z,51.37
2022-08-05T10:45:24.070Z,50.70
2022-08-05T10:48:35.056Z,50.30
2022-08-05T10:51:22.037Z,50.24
2022-08-05T10:53:58.406Z,50.02
2022-08-05T10:56:30.329Z,49.98
2022-08-05T10:59:12.765Z,49.83
2022-08-05T11:02:14.093Z,49.24
2022-08-05T11:04:56.976Z,48.28
2022-08-05T11:07:32.785Z,48.15
2022-08-05T11:10:09.671Z,48.02
2022-08-05T11:12:54.328Z,45.71
2022-08-05T11:16:01.031Z,46.26
2022-08-05T11:18:26.622Z,46.33
2022-08-05T11:20:54.828Z,45.22
2022-08-05T11:24:02.678Z,45.41
2022-08-05T11:26:33.511Z,45.64
2022-08-05T11:29:12.052Z,45.20
2022-08-05T11:31:58.023Z,45.51
2022-08-05T11:34:39.548Z,43.69
2022-08-05T11:38:27.776Z,42.52
2022-08-05T11:40:02.953Z,42.92
2022-08-05T11:42:37.782Z,43.17
2022-08-05T11:45:23.514Z,42.70
2022-08-05T11:47:55.866Z,43.06
2022-08-05T11:50:25.286Z,42.72
2022-08-05T11:52:57.752Z,42.53
2022-08-05T11:55:31.563Z,42.66
2022-08-05T11:58:09.744Z,42.66
2022-08-05T12:00:41.237Z,42.94
2022-08-05T12:03:29.010Z,43.24
2022-08-05T12:06:01.888Z,42.47
2022-08-05T12:08:31.609Z,43.17
2022-08-05T12:11:05.671Z,43.15
2022-08-05T12:13:48.727Z,43.58
2022-08-05T12:16:19.937Z,43.62
2022-08-05T12:18:53.519Z,43.73
2022-08-05T12:21:24.333Z,44.07
2022-08-05T12:24:10.907Z,43.33
2022-08-05T12:26:44.302Z,43.16
2022-08-05T12:29:16.198Z,43.54
2022-08-05T12:31:53.739Z,42.15
2022-08-05T12:34:25.896Z,42.24
2022-08-05T12:36:54.644Z,42.03
2022-08-05T12:39:27.903Z,41.77
2022-08-05T12:42:02.585Z,40.88
2022-08-05T12:44:34.024Z,39.85
2022-08-05T12:47:02.868Z,39.84
2022-08-05T12:50:03.629Z,39.07
2022-08-05T12:52:38.539Z,40.24
2022-08-05T12:55:22.458Z,40.50
2022-08-05T12:58:48.554Z,40.33
2022-08-05T13:02:04.060Z,39.53
2022-08-05T13:03:41.566Z,39.97
2022-08-05T13:06:13.988Z,39.67
2022-08-05T13:08:49.145Z,38.99
2022-08-05T13:11:25.342Z,38.14
2022-08-05T13:14:16.110Z,39.25
2022-08-05T13:16:56.429Z,39.08
2022-08-05T13:19:26.363Z,39.35
2022-08-05T13:21:56.645Z,38.73
2022-08-05T13:24:36.240Z,39.23
2022-08-05T13:27:23.111Z,38.48
2022-08-05T13:30:34.712Z,39.12
2022-08-05T13:32:50.627Z,38.73
2022-08-05T13:35:26.288Z,38.33
2022-08-05T13:38:07.008Z,38.70
2022-08-05T13:40:51.881Z,39.03
2022-08-05T13:43:21.752Z,39.37
2022-08-05T13:45:50.686Z,38.83
2022-08-05T13:48:58.177Z,38.38
2022-08-05T13:51:08.463Z,38.25
2022-08-05T13:53:47.804Z,37.42
2022-08-05T13:56:18.959Z,36.87
2022-08-05T13:58:52.771Z,36.65
2022-08-05T14:01:27.410Z,37.21
2022-08-05T14:04:28.044Z,37.34
2022-08-05T14:07:12.026Z,37.52
2022-08-05T14:09:46.336Z,38.89
2022-08-05T14:12:17.554Z,38.41
2022-08-05T14:14:46.822Z,37.52
2022-08-05T14:17:16.909Z,37.85
2022-08-05T14:19:54.615Z,38.66
2022-08-05T14:22:24.149Z,37.50
2022-08-05T14:24:58.313Z,37.29
2022-08-05T14:27:28.290Z,37.28
2022-08-05T14:29:56.300Z,36.79
2022-08-05T14:32:27.253Z,36.79
2022-08-05T14:34:57.679Z,37.70
2022-08-05T14:37:44.740Z,38.11
2022-08-05T14:40:17.016Z,37.28
2022-08-05T14:42:45.226Z,38.15
2022-08-05T14:45:13.183Z,37.25
2022-08-05T14:48:05.005Z,37.28
2022-08-05T14:50:32.087Z,38.61
2022-08-05T14:53:00.628Z,37.30
2022-08-05T14:55:39.008Z,37.11
2022-08-05T14:58:10.811Z,36.76
2022-08-05T15:00:59.389Z,37.49
2022-08-05T15:03:33.930Z,37.29
2022-08-05T15:06:15.146Z,36.21
2022-08-05T15:08:59.375Z,36.37
2022-08-05T15:11:50.978Z,36.08
2022-08-05T15:14:34.980Z,36.62
2022-08-05T15:17:09.903Z,37.44
2022-08-05T15:19:56.993Z,38.26
2022-08-05T15:22:27.175Z,38.19
2022-08-05T15:24:55.511Z,38.35
2022-08-05T15:27:25.707Z,38.64
2022-08-05T15:29:56.607Z,38.78
2022-08-05T15:32:27.390Z,39.11
2022-08-05T15:34:56.898Z,39.22
2022-08-05T15:38:32.613Z,38.70
2022-08-05T15:40:59.776Z,38.99
2022-08-05T15:43:10.919Z,39.30
2022-08-05T15:45:47.741Z,39.11
2022-08-05T15:48:28.257Z,38.62
2022-08-05T15:50:56.484Z,38.87
2022-08-05T15:53:26.331Z,38.18
2022-08-05T15:56:02.511Z,38.16
2022-08-05T15:58:35.443Z,38.31
2022-08-05T16:01:16.165Z,37.92
2022-08-05T16:03:48.482Z,38.38
2022-08-05T16:06:20.231Z,38.61
2022-08-05T16:08:50.365Z,38.20
2022-08-05T16:11:21.092Z,38.66
2022-08-05T16:14:07.083Z,38.28
2022-08-05T16:16:36.786Z,38.40
2022-08-05T16:19:04.905Z,38.58
2022-08-05T16:22:00.686Z,38.97
2022-08-05T16:24:41.307Z,38.94
2022-08-05T16:27:09.555Z,38.98
2022-08-05T16:29:37.980Z,38.77
2022-08-05T16:32:06.362Z,39.18
2022-08-05T16:34:34.257Z,39.24
2022-08-05T16:37:01.956Z,39.42
2022-08-05T16:40:06.062Z,39.61
2022-08-05T16:42:36.387Z,39.39
2022-08-05T16:46:02.663Z,39.44
2022-08-05T16:47:54.383Z,39.73
2022-08-05T16:50:25.254Z,39.87
2022-08-05T16:52:52.923Z,40.65
2022-08-05T16:55:25.698Z,41.12
2022-08-05T16:58:01.470Z,41.17
2022-08-05T17:00:34.980Z,41.53
2022-08-05T17:03:09.286Z,41.24
2022-08-05T17:05:53.378Z,41.22
2022-08-05T17:08:51.868Z,41.49
2022-08-05T17:11:12.695Z,41.46
2022-08-05T17:13:44.652Z,41.45
2022-08-05T17:16:29.880Z,41.36
2022-08-05T17:19:01.183Z,41.51
2022-08-05T17:21:35.746Z,41.37
2022-08-05T17:24:19.666Z,41.19
2022-08-05T17:26:53.780Z,41.41
2022-08-05T17:29:33.813Z,41.46
2022-08-05T17:32:08.616Z,41.50
2022-08-05T17:34:40.387Z,41.63
2022-08-05T17:37:27.238Z,41.65
2022-08-05T17:39:59.886Z,41.76
2022-08-05T17:42:32.284Z,41.48
2022-08-05T17:45:17.700Z,41.55
2022-08-05T17:47:53.013Z,41.52
2022-08-05T17:50:28.235Z,41.32
2022-08-05T17:52:58.987Z,41.18
2022-08-05T17:55:37.110Z,40.84
2022-08-05T17:58:12.281Z,40.83
2022-08-05T18:00:45.464Z,40.58
2022-08-05T18:06:10.879Z,40.52
2022-08-05T18:08:44.539Z,40.62
2022-08-05T18:11:24.183Z,40.35
2022-08-05T18:14:03.582Z,39.90
2022-08-05T18:16:32.273Z,39.79
2022-08-05T18:19:00.032Z,39.81
2022-08-05T18:21:28.225Z,39.80
2022-08-05T18:24:15.478Z,39.66
2022-08-05T18:26:43.935Z,39.62
2022-08-05T18:29:13.061Z,39.34
2022-08-05T18:31:44.645Z,39.38
2022-08-05T18:34:12.931Z,39.47
2022-08-05T18:36:43.598Z,39.42
2022-08-05T18:39:41.810Z,39.30
2022-08-05T18:42:03.575Z,39.31
2022-08-05T18:44:49.239Z,39.26
2022-08-05T18:47:26.781Z,39.16
2022-08-05T18:50:13.098Z,39.23
2022-08-05T18:52:51.138Z,38.99
2022-08-05T18:55:21.509Z,39.04
2022-08-05T18:57:53.302Z,39.31
2022-08-05T19:00:28.704Z,39.44
2022-08-05T19:02:57.824Z,39.49
2022-08-05T19:06:13.536Z,39.27
2022-08-05T19:08:19.761Z,39.54
2022-08-05T19:10:49.600Z,39.25
2022-08-05T19:13:17.518Z,39.40
2022-08-05T19:15:58.828Z,39.32
2022-08-05T19:18:31.072Z,39.42
2022-08-05T19:20:59.551Z,39.80
2022-08-05T19:24:07.090Z,39.58
2022-08-05T19:26:16.594Z,39.66
2022-08-05T19:28:44.480Z,39.66
2022-08-05T19:31:17.685Z,39.70
2022-08-05T19:33:48.734Z,39.70
2022-08-05T19:36:24.965Z,40.07
2022-08-05T19:38:54.104Z,39.98
2022-08-05T19:42:03.392Z,40.00
2022-08-05T19:44:13.275Z,40.29
2022-08-05T19:46:43.723Z,40.43
2022-08-05T19:49:16.458Z,40.38
2022-08-05T19:52:04.363Z,40.41
2022-08-05T19:54:34.659Z,40.48
2022-08-05T19:57:06.850Z,40.71
2022-08-05T20:00:00.784Z,40.85
2022-08-05T20:02:30.358Z,40.92
2022-08-05T20:04:59.911Z,40.98
2022-08-05T20:07:48.583Z,41.02
2022-08-05T20:10:16.469Z,41.08
2022-08-05T20:12:48.326Z,41.14
2022-08-05T20:15:47.843Z,41.23
2022-08-05T20:18:10.267Z,41.31
2022-08-05T20:20:56.076Z,41.26
2022-08-05T20:23:39.653Z,41.31
2022-08-05T20:26:16.057Z,41.55
2022-08-05T20:28:44.524Z,41.65
2022-08-05T20:31:12.454Z,41.51
2022-08-05T20:33:42.460Z,41.67
2022-08-05T20:36:11.210Z,41.59
2022-08-05T20:38:40.867Z,41.62
2022-08-05T20:41:24.140Z,41.76
2022-08-05T20:43:59.586Z,41.68
2022-08-05T20:46:30.447Z,41.85
2022-08-05T20:49:00.830Z,41.95
2022-08-05T20:51:30.316Z,41.86
2022-08-05T20:54:01.261Z,41.84
2022-08-05T20:56:32.971Z,41.88
2022-08-05T20:59:14.078Z,41.88
2022-08-05T21:01:47.352Z,41.87
2022-08-05T21:04:17.652Z,41.93
2022-08-05T21:06:46.098Z,41.87
2022-08-05T21:09:15.769Z,42.00
2022-08-05T21:12:08.990Z,41.95
2022-08-05T21:14:34.777Z,42.14
2022-08-05T21:17:05.098Z,42.19
2022-08-05T21:19:46.669Z,42.00
2022-08-05T21:22:18.531Z,42.05
2022-08-05T21:24:52.025Z,41.96
2022-08-05T21:27:20.572Z,42.22
2022-08-05T21:29:54.148Z,42.07
2022-08-05T21:32:23.473Z,42.30
2022-08-05T21:35:06.823Z,42.16
2022-08-05T21:37:41.672Z,42.31
2022-08-05T21:40:16.652Z,42.23
2022-08-05T21:42:45.772Z,42.33
2022-08-05T21:45:24.003Z,42.28
2022-08-05T21:47:56.826Z,42.19
2022-08-05T21:50:27.458Z,42.28
2022-08-05T21:52:59.075Z,42.50
2022-08-05T21:56:01.720Z,42.43
2022-08-05T21:58:24.802Z,42.59
2022-08-05T22:00:59.458Z,42.53
2022-08-05T22:03:48.957Z,42.45
2022-08-05T22:06:16.333Z,42.66
2022-08-05T22:08:52.206Z,42.49
2022-08-05T22:11:34.992Z,42.62
2022-08-05T22:14:06.228Z,42.81
2022-08-05T22:16:55.938Z,42.92
2022-08-05T22:20:01.157Z,42.95
2022-08-05T22:22:15.614Z,42.88
2022-08-05T22:25:01.912Z,42.91
2022-08-05T22:28:08.827Z,43.10
2022-08-05T22:30:35.876Z,42.99
2022-08-05T22:33:04.287Z,43.16
2022-08-05T22:35:48.730Z,43.29
2022-08-05T22:38:18.927Z,43.35
2022-08-05T22:40:49.878Z,43.22
2022-08-05T22:43:37.482Z,43.34
2022-08-05T22:46:12.285Z,43.45
2022-08-05T22:48:41.801Z,43.56
2022-08-05T22:51:22.376Z,43.65
2022-08-05T22:53:55.149Z,43.70
2022-08-05T22:56:30.721Z,43.67
2022-08-05T22:59:02.784Z,43.71
2022-08-05T23:02:05.063Z,43.58
2022-08-05T23:04:19.408Z,43.86
2022-08-05T23:06:47.742Z,43.90
2022-08-05T23:09:27.449Z,43.80
2022-08-05T23:12:05.446Z,43.80
2022-08-05T23:14:33.869Z,43.87
2022-08-05T23:17:34.262Z,44.00
2022-08-05T23:20:16.771Z,43.79
2022-08-05T23:22:47.451Z,43.99
2022-08-05T23:25:52.961Z,44.03
2022-08-05T23:28:07.008Z,43.95
2022-08-05T23:30:40.292Z,44.08
2022-08-05T23:33:22.047Z,43.96
2022-08-05T23:35:55.090Z,44.08
2022-08-05T23:38:25.850Z,44.11
2022-08-05T23:40:55.171Z,44.11
2022-08-05T23:43:37.319Z,44.05
2022-08-05T23:46:20.689Z,44.38
2022-08-05T23:48:59.608Z,43.92
2022-08-05T23:51:54.271Z,44.29
2022-08-05T23:54:25.595Z,44.32
2022-08-05T23:57:03.381Z,44.19
